sensor_id;sensor_type;location;lat;lon;timestamp;P1;durP1;ratioP1;P2;durP2;ratioP2
41629;SDS011;27322;49.488;8.480;2022-11-20T00:01:20;27.58;;;16.63;;
41629;SDS011;27322;49.488;8.480;2022-11-20T00:03:47;30.17;;;17.30;;
41629;SDS011;27322;49.488;8.480;2022-11-20T00:06:14;28.50;;;17.40;;
41629;SDS011;27322;49.488;8.480;2022-11-20T00:08:41;28.08;;;16.95;;
41629;SDS011;27322;49.488;8.480;2022-11-20T00:11:08;30.90;;;17.90;;
41629;SDS011;27322;49.488;8.480;2022-11-20T00:13:37;28.58;;;17.58;;
41629;SDS011;27322;49.488;8.480;2022-11-20T00:16:06;29.65;;;17.35;;
41629;SDS011;27322;49.488;8.480;2022-11-20T00:18:34;27.73;;;16.35;;
41629;SDS011;27322;49.488;8.480;2022-11-20T00:21:00;26.38;;;16.10;;
41629;SDS011;27322;49.488;8.480;2022-11-20T00:23:30;24.75;;;15.13;;
41629;SDS011;27322;49.488;8.480;2022-11-20T00:25:56;23.85;;;14.48;;
41629;SDS011;27322;49.488;8.480;2022-11-20T00:28:22;25.60;;;14.98;;
41629;SDS011;27322;49.488;8.480;2022-11-20T00:30:47;25.25;;;15.38;;
41629;SDS011;27322;49.488;8.480;2022-11-20T00:33:13;25.98;;;15.43;;
41629;SDS011;27322;49.488;8.480;2022-11-20T00:35:38;24.73;;;15.18;;
41629;SDS011;27322;49.488;8.480;2022-11-20T00:38:04;24.48;;;14.48;;
41629;SDS011;27322;49.488;8.480;2022-11-20T00:40:29;28.48;;;15.82;;
41629;SDS011;27322;49.488;8.480;2022-11-20T00:42:55;27.45;;;16.90;;
41629;SDS011;27322;49.488;8.480;2022-11-20T00:45:21;28.80;;;16.90;;
41629;SDS011;27322;49.488;8.480;2022-11-20T00:47:46;24.98;;;16.02;;
41629;SDS011;27322;49.488;8.480;2022-11-20T00:50:12;26.90;;;16.88;;
41629;SDS011;27322;49.488;8.480;2022-11-20T00:52:37;25.65;;;15.13;;
41629;SDS011;27322;49.488;8.480;2022-11-20T00:55:03;25.05;;;15.98;;
41629;SDS011;27322;49.488;8.480;2022-11-20T00:57:29;25.63;;;16.40;;
41629;SDS011;27322;49.488;8.480;2022-11-20T00:59:54;25.73;;;16.33;;
41629;SDS011;27322;49.488;8.480;2022-11-20T01:02:20;25.63;;;15.82;;
41629;SDS011;27322;49.488;8.480;2022-11-20T01:04:46;24.52;;;14.18;;
41629;SDS011;27322;49.488;8.480;2022-11-20T01:07:12;26.00;;;15.10;;
41629;SDS011;27322;49.488;8.480;2022-11-20T01:09:37;25.52;;;15.50;;
41629;SDS011;27322;49.488;8.480;2022-11-20T01:12:03;26.58;;;15.73;;
41629;SDS011;27322;49.488;8.480;2022-11-20T01:14:29;20.60;;;12.60;;
41629;SDS011;27322;49.488;8.480;2022-11-20T01:16:54;18.75;;;11.77;;
41629;SDS011;27322;49.488;8.480;2022-11-20T01:19:21;19.13;;;11.23;;
41629;SDS011;27322;49.488;8.480;2022-11-20T01:21:49;21.30;;;13.00;;
41629;SDS011;27322;49.488;8.480;2022-11-20T01:24:17;21.58;;;12.95;;
41629;SDS011;27322;49.488;8.480;2022-11-20T01:26:44;19.65;;;11.55;;
41629;SDS011;27322;49.488;8.480;2022-11-20T01:29:13;18.80;;;11.80;;
41629;SDS011;27322;49.488;8.480;2022-11-20T01:31:49;18.95;;;11.93;;
41629;SDS011;27322;49.488;8.480;2022-11-20T01:34:18;20.08;;;12.52;;
41629;SDS011;27322;49.488;8.480;2022-11-20T01:36:45;18.45;;;11.70;;
41629;SDS011;27322;49.488;8.480;2022-11-20T01:39:12;26.73;;;15.93;;
41629;SDS011;27322;49.488;8.480;2022-11-20T01:41:40;25.90;;;16.02;;
41629;SDS011;27322;49.488;8.480;2022-11-20T01:49:56;28.30;;;17.08;;
41629;SDS011;27322;49.488;8.480;2022-11-20T01:52:24;24.52;;;15.20;;
41629;SDS011;27322;49.488;8.480;2022-11-20T01:55:10;25.20;;;15.88;;
41629;SDS011;27322;49.488;8.480;2022-11-20T01:57:39;24.67;;;15.30;;
41629;SDS011;27322;49.488;8.480;2022-11-20T02:00:09;25.83;;;15.98;;
41629;SDS011;27322;49.488;8.480;2022-11-20T02:02:39;27.60;;;16.00;;
41629;SDS011;27322;49.488;8.480;2022-11-20T02:05:10;24.67;;;15.25;;
41629;SDS011;27322;49.488;8.480;2022-11-20T02:07:41;26.27;;;15.45;;
41629;SDS011;27322;49.488;8.480;2022-11-20T02:10:07;26.58;;;16.00;;
41629;SDS011;27322;49.488;8.480;2022-11-20T02:12:33;25.48;;;15.25;;
41629;SDS011;27322;49.488;8.480;2022-11-20T02:15:17;26.60;;;16.02;;
41629;SDS011;27322;49.488;8.480;2022-11-20T02:17:42;26.88;;;15.05;;
41629;SDS011;27322;49.488;8.480;2022-11-20T02:20:08;24.80;;;14.95;;
41629;SDS011;27322;49.488;8.480;2022-11-20T02:22:36;25.38;;;14.82;;
41629;SDS011;27322;49.488;8.480;2022-11-20T02:25:14;25.67;;;15.73;;
41629;SDS011;27322;49.488;8.480;2022-11-20T02:27:40;24.13;;;14.25;;
41629;SDS011;27322;49.488;8.480;2022-11-20T02:30:06;25.27;;;15.18;;
41629;SDS011;27322;49.488;8.480;2022-11-20T02:32:36;22.67;;;14.00;;
41629;SDS011;27322;49.488;8.480;2022-11-20T02:35:07;23.15;;;13.88;;
41629;SDS011;27322;49.488;8.480;2022-11-20T02:37:45;26.40;;;14.43;;
41629;SDS011;27322;49.488;8.480;2022-11-20T02:40:14;19.83;;;12.60;;
41629;SDS011;27322;49.488;8.480;2022-11-20T02:42:40;21.80;;;12.65;;
41629;SDS011;27322;49.488;8.480;2022-11-20T02:45:06;22.20;;;12.52;;
41629;SDS011;27322;49.488;8.480;2022-11-20T02:47:33;22.73;;;12.45;;
41629;SDS011;27322;49.488;8.480;2022-11-20T02:49:58;19.65;;;11.52;;
41629;SDS011;27322;49.488;8.480;2022-11-20T02:52:25;20.10;;;11.70;;
41629;SDS011;27322;49.488;8.480;2022-11-20T02:54:51;21.17;;;12.02;;
41629;SDS011;27322;49.488;8.480;2022-11-20T02:57:17;19.85;;;11.80;;
41629;SDS011;27322;49.488;8.480;2022-11-20T02:59:42;20.83;;;12.10;;
41629;SDS011;27322;49.488;8.480;2022-11-20T03:02:08;21.65;;;12.15;;
41629;SDS011;27322;49.488;8.480;2022-11-20T03:04:33;19.55;;;11.38;;
41629;SDS011;27322;49.488;8.480;2022-11-20T03:06:59;20.45;;;12.18;;
41629;SDS011;27322;49.488;8.480;2022-11-20T03:09:25;21.20;;;12.10;;
41629;SDS011;27322;49.488;8.480;2022-11-20T03:11:50;22.33;;;12.45;;
41629;SDS011;27322;49.488;8.480;2022-11-20T03:14:16;19.95;;;12.13;;
41629;SDS011;27322;49.488;8.480;2022-11-20T03:16:42;21.42;;;12.40;;
41629;SDS011;27322;49.488;8.480;2022-11-20T03:19:07;23.10;;;13.00;;
41629;SDS011;27322;49.488;8.480;2022-11-20T03:21:33;18.67;;;11.05;;
41629;SDS011;27322;49.488;8.480;2022-11-20T03:23:59;19.05;;;12.23;;
41629;SDS011;27322;49.488;8.480;2022-11-20T03:26:25;21.48;;;12.73;;
41629;SDS011;27322;49.488;8.480;2022-11-20T03:28:53;25.45;;;11.80;;
41629;SDS011;27322;49.488;8.480;2022-11-20T03:31:24;18.15;;;11.30;;
41629;SDS011;27322;49.488;8.480;2022-11-20T03:33:51;20.63;;;12.18;;
41629;SDS011;27322;49.488;8.480;2022-11-20T03:36:18;19.95;;;11.48;;
41629;SDS011;27322;49.488;8.480;2022-11-20T03:38:45;20.25;;;11.45;;
41629;SDS011;27322;49.488;8.480;2022-11-20T03:41:12;21.83;;;11.80;;
41629;SDS011;27322;49.488;8.480;2022-11-20T03:43:39;20.45;;;11.45;;
41629;SDS011;27322;49.488;8.480;2022-11-20T03:46:05;21.63;;;12.18;;
41629;SDS011;27322;49.488;8.480;2022-11-20T03:48:31;20.75;;;11.85;;
41629;SDS011;27322;49.488;8.480;2022-11-20T03:51:07;20.63;;;11.35;;
41629;SDS011;27322;49.488;8.480;2022-11-20T03:53:36;20.00;;;11.32;;
41629;SDS011;27322;49.488;8.480;2022-11-20T03:56:02;18.63;;;10.98;;
41629;SDS011;27322;49.488;8.480;2022-11-20T03:58:28;19.75;;;11.90;;
41629;SDS011;27322;49.488;8.480;2022-11-20T04:00:53;20.80;;;12.30;;
41629;SDS011;27322;49.488;8.480;2022-11-20T04:03:19;20.60;;;11.73;;
41629;SDS011;27322;49.488;8.480;2022-11-20T04:05:45;20.58;;;12.13;;
41629;SDS011;27322;49.488;8.480;2022-11-20T04:08:10;21.35;;;11.98;;
41629;SDS011;27322;49.488;8.480;2022-11-20T04:10:36;24.05;;;13.27;;
41629;SDS011;27322;49.488;8.480;2022-11-20T04:13:02;19.27;;;11.75;;
41629;SDS011;27322;49.488;8.480;2022-11-20T04:15:28;19.83;;;11.75;;
41629;SDS011;27322;49.488;8.480;2022-11-20T04:17:53;19.67;;;10.98;;
41629;SDS011;27322;49.488;8.480;2022-11-20T04:20:19;22.55;;;12.00;;
41629;SDS011;27322;49.488;8.480;2022-11-20T04:22:44;19.60;;;11.20;;
41629;SDS011;27322;49.488;8.480;2022-11-20T04:25:10;22.08;;;11.38;;
41629;SDS011;27322;49.488;8.480;2022-11-20T04:27:36;20.10;;;11.32;;
41629;SDS011;27322;49.488;8.480;2022-11-20T04:30:01;19.05;;;10.98;;
41629;SDS011;27322;49.488;8.480;2022-11-20T04:32:27;19.00;;;11.27;;
41629;SDS011;27322;49.488;8.480;2022-11-20T04:34:53;18.33;;;10.63;;
41629;SDS011;27322;49.488;8.480;2022-11-20T04:37:18;18.98;;;11.10;;
41629;SDS011;27322;49.488;8.480;2022-11-20T04:39:44;19.27;;;10.77;;
41629;SDS011;27322;49.488;8.480;2022-11-20T04:42:09;17.50;;;10.38;;
41629;SDS011;27322;49.488;8.480;2022-11-20T04:44:53;17.50;;;10.30;;
41629;SDS011;27322;49.488;8.480;2022-11-20T04:47:19;19.10;;;10.50;;
41629;SDS011;27322;49.488;8.480;2022-11-20T04:49:45;18.92;;;10.63;;
41629;SDS011;27322;49.488;8.480;2022-11-20T04:52:11;20.05;;;11.00;;
41629;SDS011;27322;49.488;8.480;2022-11-20T04:54:36;19.50;;;10.65;;
41629;SDS011;27322;49.488;8.480;2022-11-20T04:57:02;19.63;;;11.52;;
41629;SDS011;27322;49.488;8.480;2022-11-20T04:59:28;18.10;;;10.63;;
41629;SDS011;27322;49.488;8.480;2022-11-20T05:01:53;18.23;;;10.55;;
41629;SDS011;27322;49.488;8.480;2022-11-20T05:04:19;19.67;;;10.73;;
41629;SDS011;27322;49.488;8.480;2022-11-20T05:06:45;18.98;;;10.75;;
41629;SDS011;27322;49.488;8.480;2022-11-20T05:09:11;21.08;;;11.63;;
41629;SDS011;27322;49.488;8.480;2022-11-20T05:11:37;16.67;;;10.48;;
41629;SDS011;27322;49.488;8.480;2022-11-20T05:14:03;20.23;;;11.10;;
41629;SDS011;27322;49.488;8.480;2022-11-20T05:16:29;18.17;;;10.55;;
41629;SDS011;27322;49.488;8.480;2022-11-20T05:18:54;17.98;;;10.68;;
41629;SDS011;27322;49.488;8.480;2022-11-20T05:21:20;19.60;;;10.85;;
41629;SDS011;27322;49.488;8.480;2022-11-20T05:23:47;19.52;;;11.35;;
41629;SDS011;27322;49.488;8.480;2022-11-20T05:26:14;18.73;;;10.73;;
41629;SDS011;27322;49.488;8.480;2022-11-20T05:28:42;19.02;;;11.23;;
41629;SDS011;27322;49.488;8.480;2022-11-20T05:31:08;20.00;;;10.68;;
41629;SDS011;27322;49.488;8.480;2022-11-20T05:33:41;19.98;;;10.85;;
41629;SDS011;27322;49.488;8.480;2022-11-20T05:36:08;17.73;;;10.52;;
41629;SDS011;27322;49.488;8.480;2022-11-20T05:38:35;18.58;;;10.52;;
41629;SDS011;27322;49.488;8.480;2022-11-20T05:41:04;17.63;;;10.52;;
41629;SDS011;27322;49.488;8.480;2022-11-20T05:43:34;19.52;;;11.07;;
41629;SDS011;27322;49.488;8.480;2022-11-20T05:46:00;17.42;;;10.32;;
41629;SDS011;27322;49.488;8.480;2022-11-20T05:48:26;20.15;;;11.63;;
41629;SDS011;27322;49.488;8.480;2022-11-20T05:50:52;20.23;;;11.93;;
41629;SDS011;27322;49.488;8.480;2022-11-20T05:53:17;17.13;;;10.73;;
41629;SDS011;27322;49.488;8.480;2022-11-20T05:55:43;19.80;;;11.65;;
41629;SDS011;27322;49.488;8.480;2022-11-20T05:58:09;24.10;;;13.60;;
41629;SDS011;27322;49.488;8.480;2022-11-20T06:00:34;24.05;;;13.18;;
41629;SDS011;27322;49.488;8.480;2022-11-20T06:03:00;23.50;;;12.85;;
41629;SDS011;27322;49.488;8.480;2022-11-20T06:05:26;21.95;;;12.35;;
41629;SDS011;27322;49.488;8.480;2022-11-20T06:07:52;23.90;;;13.10;;
41629;SDS011;27322;49.488;8.480;2022-11-20T06:10:17;22.85;;;12.90;;
41629;SDS011;27322;49.488;8.480;2022-11-20T06:12:43;21.05;;;12.63;;
41629;SDS011;27322;49.488;8.480;2022-11-20T06:15:09;20.90;;;12.27;;
41629;SDS011;27322;49.488;8.480;2022-11-20T06:17:34;21.02;;;11.82;;
41629;SDS011;27322;49.488;8.480;2022-11-20T06:20:00;20.80;;;12.20;;
41629;SDS011;27322;49.488;8.480;2022-11-20T06:22:26;20.60;;;12.20;;
41629;SDS011;27322;49.488;8.480;2022-11-20T06:24:51;20.10;;;11.27;;
41629;SDS011;27322;49.488;8.480;2022-11-20T06:27:17;21.98;;;12.55;;
41629;SDS011;27322;49.488;8.480;2022-11-20T06:29:42;22.20;;;11.98;;
41629;SDS011;27322;49.488;8.480;2022-11-20T06:32:08;20.98;;;12.52;;
41629;SDS011;27322;49.488;8.480;2022-11-20T06:34:34;23.30;;;13.02;;
41629;SDS011;27322;49.488;8.480;2022-11-20T06:36:59;22.75;;;12.18;;
41629;SDS011;27322;49.488;8.480;2022-11-20T06:39:25;21.30;;;12.18;;
41629;SDS011;27322;49.488;8.480;2022-11-20T06:41:50;21.08;;;12.23;;
41629;SDS011;27322;49.488;8.480;2022-11-20T06:44:16;22.98;;;11.98;;
41629;SDS011;27322;49.488;8.480;2022-11-20T06:46:42;20.98;;;11.70;;
41629;SDS011;27322;49.488;8.480;2022-11-20T06:49:07;23.50;;;13.40;;
41629;SDS011;27322;49.488;8.480;2022-11-20T06:51:33;22.67;;;12.65;;
41629;SDS011;27322;49.488;8.480;2022-11-20T06:53:58;20.63;;;11.90;;
41629;SDS011;27322;49.488;8.480;2022-11-20T06:56:25;20.27;;;12.13;;
41629;SDS011;27322;49.488;8.480;2022-11-20T06:58:51;20.48;;;12.07;;
41629;SDS011;27322;49.488;8.480;2022-11-20T07:01:17;21.30;;;12.05;;
41629;SDS011;27322;49.488;8.480;2022-11-20T07:03:42;21.10;;;12.15;;
41629;SDS011;27322;49.488;8.480;2022-11-20T07:06:08;21.65;;;12.40;;
41629;SDS011;27322;49.488;8.480;2022-11-20T07:08:35;21.92;;;12.27;;
41629;SDS011;27322;49.488;8.480;2022-11-20T07:11:01;20.63;;;12.07;;
41629;SDS011;27322;49.488;8.480;2022-11-20T07:13:29;20.50;;;11.88;;
41629;SDS011;27322;49.488;8.480;2022-11-20T07:15:59;22.42;;;13.00;;
41629;SDS011;27322;49.488;8.480;2022-11-20T07:18:26;21.10;;;12.43;;
41629;SDS011;27322;49.488;8.480;2022-11-20T07:20:51;26.17;;;14.02;;
41629;SDS011;27322;49.488;8.480;2022-11-20T07:23:17;26.10;;;14.82;;
41629;SDS011;27322;49.488;8.480;2022-11-20T07:25:42;22.25;;;13.30;;
41629;SDS011;27322;49.488;8.480;2022-11-20T07:28:08;24.48;;;13.57;;
41629;SDS011;27322;49.488;8.480;2022-11-20T07:30:35;28.08;;;14.00;;
41629;SDS011;27322;49.488;8.480;2022-11-20T07:33:01;27.42;;;14.95;;
41629;SDS011;27322;49.488;8.480;2022-11-20T07:35:26;23.70;;;13.23;;
41629;SDS011;27322;49.488;8.480;2022-11-20T07:37:52;26.23;;;13.90;;
41629;SDS011;27322;49.488;8.480;2022-11-20T07:40:18;26.67;;;13.52;;
41629;SDS011;27322;49.488;8.480;2022-11-20T07:42:48;23.35;;;12.88;;
41629;SDS011;27322;49.488;8.480;2022-11-20T07:45:14;24.25;;;13.43;;
41629;SDS011;27322;49.488;8.480;2022-11-20T07:47:40;22.90;;;12.40;;
41629;SDS011;27322;49.488;8.480;2022-11-20T07:50:05;23.98;;;13.52;;
41629;SDS011;27322;49.488;8.480;2022-11-20T07:52:32;24.63;;;13.65;;
41629;SDS011;27322;49.488;8.480;2022-11-20T07:55:01;25.10;;;14.02;;
41629;SDS011;27322;49.488;8.480;2022-11-20T07:57:26;25.70;;;14.02;;
41629;SDS011;27322;49.488;8.480;2022-11-20T07:59:52;26.25;;;13.75;;
41629;SDS011;27322;49.488;8.480;2022-11-20T08:02:17;23.58;;;13.48;;
41629;SDS011;27322;49.488;8.480;2022-11-20T08:04:43;25.52;;;13.90;;
41629;SDS011;27322;49.488;8.480;2022-11-20T08:07:08;26.50;;;13.23;;
41629;SDS011;27322;49.488;8.480;2022-11-20T08:09:34;22.25;;;13.10;;
41629;SDS011;27322;49.488;8.480;2022-11-20T08:12:00;22.58;;;12.85;;
41629;SDS011;27322;49.488;8.480;2022-11-20T08:14:44;27.52;;;14.75;;
41629;SDS011;27322;49.488;8.480;2022-11-20T08:17:09;27.38;;;15.30;;
41629;SDS011;27322;49.488;8.480;2022-11-20T08:19:35;27.15;;;13.88;;
41629;SDS011;27322;49.488;8.480;2022-11-20T08:22:00;26.55;;;14.30;;
41629;SDS011;27322;49.488;8.480;2022-11-20T08:24:26;25.83;;;14.88;;
41629;SDS011;27322;49.488;8.480;2022-11-20T08:26:52;22.70;;;13.38;;
41629;SDS011;27322;49.488;8.480;2022-11-20T08:29:17;27.50;;;14.15;;
41629;SDS011;27322;49.488;8.480;2022-11-20T08:31:43;23.58;;;13.77;;
41629;SDS011;27322;49.488;8.480;2022-11-20T08:34:09;24.92;;;14.30;;
41629;SDS011;27322;49.488;8.480;2022-11-20T08:36:35;22.15;;;13.15;;
41629;SDS011;27322;49.488;8.480;2022-11-20T08:39:01;24.80;;;13.15;;
41629;SDS011;27322;49.488;8.480;2022-11-20T08:41:27;24.67;;;13.65;;
41629;SDS011;27322;49.488;8.480;2022-11-20T08:43:57;22.67;;;13.10;;
41629;SDS011;27322;49.488;8.480;2022-11-20T08:46:25;23.08;;;13.00;;
41629;SDS011;27322;49.488;8.480;2022-11-20T08:48:52;21.70;;;12.95;;
41629;SDS011;27322;49.488;8.480;2022-11-20T08:51:19;22.50;;;13.05;;
41629;SDS011;27322;49.488;8.480;2022-11-20T08:53:45;22.10;;;12.85;;
41629;SDS011;27322;49.488;8.480;2022-11-20T08:56:13;26.98;;;15.25;;
41629;SDS011;27322;49.488;8.480;2022-11-20T08:58:39;25.58;;;14.70;;
41629;SDS011;27322;49.488;8.480;2022-11-20T09:01:05;26.77;;;15.95;;
41629;SDS011;27322;49.488;8.480;2022-11-20T09:03:30;29.58;;;16.67;;
41629;SDS011;27322;49.488;8.480;2022-11-20T09:05:59;30.75;;;17.80;;
41629;SDS011;27322;49.488;8.480;2022-11-20T09:08:27;32.15;;;17.67;;
41629;SDS011;27322;49.488;8.480;2022-11-20T09:10:53;38.53;;;19.33;;
41629;SDS011;27322;49.488;8.480;2022-11-20T09:13:20;34.25;;;19.75;;
41629;SDS011;27322;49.488;8.480;2022-11-20T09:15:46;36.25;;;19.08;;
41629;SDS011;27322;49.488;8.480;2022-11-20T09:18:12;34.90;;;19.10;;
41629;SDS011;27322;49.488;8.480;2022-11-20T09:20:38;39.88;;;19.70;;
41629;SDS011;27322;49.488;8.480;2022-11-20T09:23:04;37.22;;;19.60;;
41629;SDS011;27322;49.488;8.480;2022-11-20T09:25:29;38.92;;;20.25;;
41629;SDS011;27322;49.488;8.480;2022-11-20T09:27:55;40.60;;;21.17;;
41629;SDS011;27322;49.488;8.480;2022-11-20T09:30:22;38.60;;;20.58;;
41629;SDS011;27322;49.488;8.480;2022-11-20T09:32:47;40.67;;;20.38;;
41629;SDS011;27322;49.488;8.480;2022-11-20T09:35:13;43.33;;;21.88;;
41629;SDS011;27322;49.488;8.480;2022-11-20T09:37:39;39.28;;;19.85;;
41629;SDS011;27322;49.488;8.480;2022-11-20T09:40:05;44.08;;;21.40;;
41629;SDS011;27322;49.488;8.480;2022-11-20T09:45:17;46.60;;;21.80;;
41629;SDS011;27322;49.488;8.480;2022-11-20T09:56:02;45.63;;;22.08;;
41629;SDS011;27322;49.488;8.480;2022-11-20T10:01:00;46.72;;;22.15;;
41629;SDS011;27322;49.488;8.480;2022-11-20T10:03:39;47.83;;;21.98;;
41629;SDS011;27322;49.488;8.480;2022-11-20T10:06:07;44.97;;;21.58;;
41629;SDS011;27322;49.488;8.480;2022-11-20T10:08:43;48.45;;;22.52;;
41629;SDS011;27322;49.488;8.480;2022-11-20T10:14:15;47.90;;;22.90;;
41629;SDS011;27322;49.488;8.480;2022-11-20T10:17:03;45.85;;;22.63;;
41629;SDS011;27322;49.488;8.480;2022-11-20T10:22:22;47.35;;;23.23;;
41629;SDS011;27322;49.488;8.480;2022-11-20T10:30:28;49.30;;;23.80;;
41629;SDS011;27322;49.488;8.480;2022-11-20T10:33:06;47.83;;;23.35;;
41629;SDS011;27322;49.488;8.480;2022-11-20T10:36:00;48.15;;;23.27;;
41629;SDS011;27322;49.488;8.480;2022-11-20T10:41:24;47.17;;;22.00;;
41629;SDS011;27322;49.488;8.480;2022-11-20T10:47:01;46.50;;;22.63;;
41629;SDS011;27322;49.488;8.480;2022-11-20T10:49:30;49.08;;;23.42;;
41629;SDS011;27322;49.488;8.480;2022-11-20T11:00:13;45.20;;;22.40;;
41629;SDS011;27322;49.488;8.480;2022-11-20T11:02:40;46.88;;;22.20;;
41629;SDS011;27322;49.488;8.480;2022-11-20T11:07:46;50.40;;;23.30;;
41629;SDS011;27322;49.488;8.480;2022-11-20T11:10:16;52.55;;;24.30;;
41629;SDS011;27322;49.488;8.480;2022-11-20T11:12:46;45.35;;;23.05;;
41629;SDS011;27322;49.488;8.480;2022-11-20T11:15:24;50.13;;;24.02;;
41629;SDS011;27322;49.488;8.480;2022-11-20T11:17:50;50.50;;;23.35;;
41629;SDS011;27322;49.488;8.480;2022-11-20T11:22:50;47.22;;;22.95;;
41629;SDS011;27322;49.488;8.480;2022-11-20T11:25:38;49.72;;;23.63;;
41629;SDS011;27322;49.488;8.480;2022-11-20T11:28:04;49.72;;;23.60;;
41629;SDS011;27322;49.488;8.480;2022-11-20T11:30:45;47.42;;;22.95;;
41629;SDS011;27322;49.488;8.480;2022-11-20T11:33:24;47.47;;;23.65;;
41629;SDS011;27322;49.488;8.480;2022-11-20T11:35:52;45.85;;;21.88;;
41629;SDS011;27322;49.488;8.480;2022-11-20T11:38:23;41.30;;;20.40;;
41629;SDS011;27322;49.488;8.480;2022-11-20T11:41:06;38.85;;;18.55;;
41629;SDS011;27322;49.488;8.480;2022-11-20T11:43:35;29.25;;;16.30;;
41629;SDS011;27322;49.488;8.480;2022-11-20T11:46:28;28.00;;;15.65;;
41629;SDS011;27322;49.488;8.480;2022-11-20T11:51:47;27.20;;;14.80;;
41629;SDS011;27322;49.488;8.480;2022-11-20T11:54:34;27.90;;;15.13;;
41629;SDS011;27322;49.488;8.480;2022-11-20T11:57:20;23.23;;;14.00;;
41629;SDS011;27322;49.488;8.480;2022-11-20T12:00:00;25.30;;;14.18;;
41629;SDS011;27322;49.488;8.480;2022-11-20T12:02:44;24.98;;;14.15;;
41629;SDS011;27322;49.488;8.480;2022-11-20T12:05:23;22.92;;;14.45;;
41629;SDS011;27322;49.488;8.480;2022-11-20T12:07:51;23.40;;;14.30;;
41629;SDS011;27322;49.488;8.480;2022-11-20T12:15:39;22.98;;;13.75;;
41629;SDS011;27322;49.488;8.480;2022-11-20T12:18:11;21.05;;;13.10;;
41629;SDS011;27322;49.488;8.480;2022-11-20T12:20:41;22.88;;;13.10;;
41629;SDS011;27322;49.488;8.480;2022-11-20T12:25:50;22.45;;;13.32;;
41629;SDS011;27322;49.488;8.480;2022-11-20T12:28:36;20.65;;;11.63;;
41629;SDS011;27322;49.488;8.480;2022-11-20T12:31:34;17.65;;;10.77;;
41629;SDS011;27322;49.488;8.480;2022-11-20T12:42:18;16.73;;;10.32;;
41629;SDS011;27322;49.488;8.480;2022-11-20T12:45:19;16.23;;;9.48;;
41629;SDS011;27322;49.488;8.480;2022-11-20T12:53:44;15.23;;;8.50;;
41629;SDS011;27322;49.488;8.480;2022-11-20T12:58:51;12.32;;;6.80;;
41629;SDS011;27322;49.488;8.480;2022-11-20T13:01:38;9.05;;;5.40;;
41629;SDS011;27322;49.488;8.480;2022-11-20T13:04:08;10.73;;;4.55;;
41629;SDS011;27322;49.488;8.480;2022-11-20T13:06:38;8.02;;;3.92;;
41629;SDS011;27322;49.488;8.480;2022-11-20T13:09:07;7.88;;;3.47;;
41629;SDS011;27322;49.488;8.480;2022-11-20T13:11:47;4.43;;;2.70;;
41629;SDS011;27322;49.488;8.480;2022-11-20T13:14:21;6.85;;;3.00;;
41629;SDS011;27322;49.488;8.480;2022-11-20T13:17:09;5.40;;;2.67;;
41629;SDS011;27322;49.488;8.480;2022-11-20T13:19:46;6.47;;;3.33;;
41629;SDS011;27322;49.488;8.480;2022-11-20T13:22:28;6.97;;;3.17;;
41629;SDS011;27322;49.488;8.480;2022-11-20T13:25:08;10.68;;;3.30;;
41629;SDS011;27322;49.488;8.480;2022-11-20T13:27:55;5.53;;;2.80;;
41629;SDS011;27322;49.488;8.480;2022-11-20T13:30:23;6.80;;;3.13;;
41629;SDS011;27322;49.488;8.480;2022-11-20T13:35:55;7.22;;;2.88;;
41629;SDS011;27322;49.488;8.480;2022-11-20T13:38:25;5.97;;;2.75;;
41629;SDS011;27322;49.488;8.480;2022-11-20T13:40:52;10.57;;;3.00;;
41629;SDS011;27322;49.488;8.480;2022-11-20T13:46:07;8.02;;;2.92;;
41629;SDS011;27322;49.488;8.480;2022-11-20T13:48:38;7.25;;;3.65;;
41629;SDS011;27322;49.488;8.480;2022-11-20T13:51:11;7.82;;;3.08;;
41629;SDS011;27322;49.488;8.480;2022-11-20T14:01:58;5.43;;;2.28;;
41629;SDS011;27322;49.488;8.480;2022-11-20T14:04:27;7.07;;;2.83;;
41629;SDS011;27322;49.488;8.480;2022-11-20T14:06:56;5.85;;;2.35;;
41629;SDS011;27322;49.488;8.480;2022-11-20T14:11:53;6.00;;;1.80;;
41629;SDS011;27322;49.488;8.480;2022-11-20T14:14:19;6.95;;;1.80;;
41629;SDS011;27322;49.488;8.480;2022-11-20T14:16:50;5.03;;;1.58;;
41629;SDS011;27322;49.488;8.480;2022-11-20T14:21:45;4.75;;;1.15;;
41629;SDS011;27322;49.488;8.480;2022-11-20T14:24:18;3.15;;;1.00;;
41629;SDS011;27322;49.488;8.480;2022-11-20T14:26:49;4.77;;;1.20;;
41629;SDS011;27322;49.488;8.480;2022-11-20T14:29:19;5.22;;;1.25;;
41629;SDS011;27322;49.488;8.480;2022-11-20T14:31:53;2.90;;;1.10;;
41629;SDS011;27322;49.488;8.480;2022-11-20T14:34:27;3.47;;;1.10;;
41629;SDS011;27322;49.488;8.480;2022-11-20T14:39:26;3.33;;;1.20;;
41629;SDS011;27322;49.488;8.480;2022-11-20T14:41:54;3.25;;;1.10;;
41629;SDS011;27322;49.488;8.480;2022-11-20T14:44:21;3.35;;;1.02;;
41629;SDS011;27322;49.488;8.480;2022-11-20T14:46:51;4.95;;;1.02;;
41629;SDS011;27322;49.488;8.480;2022-11-20T14:49:17;2.88;;;0.80;;
41629;SDS011;27322;49.488;8.480;2022-11-20T14:51:43;3.47;;;0.98;;
41629;SDS011;27322;49.488;8.480;2022-11-20T14:54:12;3.42;;;1.20;;
41629;SDS011;27322;49.488;8.480;2022-11-20T14:56:56;3.40;;;1.00;;
41629;SDS011;27322;49.488;8.480;2022-11-20T14:59:24;3.60;;;1.05;;
41629;SDS011;27322;49.488;8.480;2022-11-20T15:01:56;4.47;;;1.00;;
41629;SDS011;27322;49.488;8.480;2022-11-20T15:04:30;4.70;;;1.23;;
41629;SDS011;27322;49.488;8.480;2022-11-20T15:06:56;4.53;;;1.20;;
41629;SDS011;27322;49.488;8.480;2022-11-20T15:09:23;2.55;;;1.08;;
41629;SDS011;27322;49.488;8.480;2022-11-20T15:14:22;5.18;;;1.90;;
41629;SDS011;27322;49.488;8.480;2022-11-20T15:16:49;9.77;;;3.65;;
41629;SDS011;27322;49.488;8.480;2022-11-20T15:19:20;9.77;;;4.50;;
41629;SDS011;27322;49.488;8.480;2022-11-20T15:21:49;8.97;;;3.77;;
41629;SDS011;27322;49.488;8.480;2022-11-20T15:24:15;7.68;;;2.67;;
41629;SDS011;27322;49.488;8.480;2022-11-20T15:26:41;5.47;;;2.10;;
41629;SDS011;27322;49.488;8.480;2022-11-20T15:29:08;4.53;;;1.75;;
41629;SDS011;27322;49.488;8.480;2022-11-20T15:31:36;3.92;;;1.45;;
41629;SDS011;27322;49.488;8.480;2022-11-20T15:34:07;4.78;;;1.50;;
41629;SDS011;27322;49.488;8.480;2022-11-20T15:36:40;3.03;;;1.45;;
41629;SDS011;27322;49.488;8.480;2022-11-20T15:39:07;5.30;;;1.50;;
41629;SDS011;27322;49.488;8.480;2022-11-20T15:41:34;4.03;;;1.50;;
41629;SDS011;27322;49.488;8.480;2022-11-20T15:44:00;4.38;;;1.40;;
41629;SDS011;27322;49.488;8.480;2022-11-20T15:46:26;4.28;;;1.35;;
41629;SDS011;27322;49.488;8.480;2022-11-20T15:48:54;7.32;;;1.20;;
41629;SDS011;27322;49.488;8.480;2022-11-20T15:51:26;3.80;;;1.23;;
41629;SDS011;27322;49.488;8.480;2022-11-20T15:54:13;2.80;;;1.10;;
41629;SDS011;27322;49.488;8.480;2022-11-20T15:56:40;5.75;;;1.30;;
41629;SDS011;27322;49.488;8.480;2022-11-20T15:59:06;4.88;;;1.35;;
41629;SDS011;27322;49.488;8.480;2022-11-20T16:01:31;5.35;;;1.30;;
41629;SDS011;27322;49.488;8.480;2022-11-20T16:03:57;3.25;;;1.00;;
41629;SDS011;27322;49.488;8.480;2022-11-20T16:06:23;5.25;;;1.20;;
41629;SDS011;27322;49.488;8.480;2022-11-20T16:08:49;4.40;;;1.13;;
41629;SDS011;27322;49.488;8.480;2022-11-20T16:11:15;5.25;;;1.40;;
41629;SDS011;27322;49.488;8.480;2022-11-20T16:13:42;4.20;;;1.38;;
41629;SDS011;27322;49.488;8.480;2022-11-20T16:16:28;4.68;;;1.38;;